Time;durP1;ratioP1;P1;durP2;ratioP2;P2;SDS_P1;SDS_P2;PMS_P1;PMS_P2;Temp;Humidity;BMP_temperature;BMP_pressure;BME280_temperature;BME280_humidity;BME280_pressure;Samples;Min_cycle;Max_cycle;Signal;HPM_P1;HPM_P2
2024/04/20 00:00:08;;;;;;;;;9.00;6.00;;;;;7.40;100.00;101696.19;5172453;27;43225;-78
2024/04/20 00:02:33;;;;;;;;;12.00;8.33;;;;;7.36;100.00;101686.81;5170769;27;44824;-78
2024/04/20 00:04:59;;;;;;;;;6.33;6.00;;;;;7.40;100.00;101698.00;5171352;27;45804;-78
2024/04/20 00:07:24;;;;;;;;;5.33;4.00;;;;;7.35;100.00;101684.31;5173088;27;43432;-78
2024/04/20 00:09:49;;;;;;;;;5.33;5.33;;;;;7.36;100.00;101688.66;5173256;27;43219;-78
2024/04/20 00:12:15;;;;;;;;;6.00;5.00;;;;;7.37;100.00;101704.38;5171436;27;44653;-78
2024/04/20 00:14:40;;;;;;;;;9.00;7.00;;;;;7.40;100.00;101705.94;5172626;27;44961;-78
2024/04/20 00:17:06;;;;;;;;;3.67;3.67;;;;;7.41;100.00;101708.44;5174246;27;43193;-78
2024/04/20 00:19:31;;;;;;;;;5.00;5.00;;;;;7.40;100.00;101705.94;5173590;27;43453;-78
2024/04/20 00:21:57;;;;;;;;;5.67;5.33;;;;;7.37;100.00;101720.25;5174477;27;43118;-78
2024/04/20 00:24:23;;;;;;;;;3.33;3.33;;;;;7.01;100.00;101664.19;5464198;21;44946;-78
2024/04/20 00:26:49;;;;;;;;;9.00;6.00;;;;;7.29;100.00;101709.47;5207589;27;43696;-78
2024/04/20 00:29:14;;;;;;;;;6.00;5.33;;;;;7.37;100.00;101725.53;5206789;27;43208;-78
2024/04/20 00:31:40;;;;;;;;;6.33;5.33;;;;;7.37;100.00;101724.69;5205785;27;44572;-78
2024/04/20 00:34:05;;;;;;;;;6.67;6.00;;;;;7.01;100.00;101674.75;5206200;27;44792;-79
2024/04/20 00:36:33;;;;;;;;;7.00;7.00;;;;;7.02;100.00;101674.63;5207086;27;43196;-78
2024/04/20 00:38:58;;;;;;;;;5.00;4.33;;;;;7.35;100.00;101724.81;5206981;27;43180;-78
2024/04/20 00:41:24;;;;;;;;;4.33;4.33;;;;;7.02;100.00;101673.78;5206729;27;44777;-77
2024/04/20 00:43:50;;;;;;;;;6.33;4.67;;;;;6.98;100.00;101661.78;5205958;27;46753;-78
2024/04/20 00:46:16;;;;;;;;;6.00;4.33;;;;;7.18;100.00;101689.19;5205019;27;43719;-78
2024/04/20 00:48:41;;;;;;;;;6.00;6.00;;;;;7.30;100.00;101711.13;5204092;27;43785;-78
2024/04/20 00:51:07;;;;;;;;;5.00;5.00;;;;;7.30;100.00;101713.78;5204336;27;45605;-78
2024/04/20 00:53:34;;;;;;;;;6.00;5.00;;;;;7.33;100.00;101721.47;5204714;27;46034;-77
2024/04/20 00:56:02;;;;;;;;;5.00;4.67;;;;;7.29;100.00;101718.25;5203667;27;43919;-78
2024/04/20 00:58:27;;;;;;;;;7.33;5.67;;;;;7.28;100.00;101711.25;5202998;27;43183;-77
2024/04/20 01:00:52;;;;;;;;;6.00;4.00;;;;;7.26;100.00;101710.56;5201059;27;44861;-78
2024/04/20 01:03:18;;;;;;;;;7.33;6.00;;;;;7.26;100.00;101712.38;5201615;27;45831;-78
2024/04/20 01:05:44;;;;;;;;;10.00;7.33;;;;;7.27;100.00;101719.34;5204860;27;43234;-78
2024/04/20 01:08:13;;;;;;;;;12.00;10.00;;;;;7.20;100.00;101719.00;5203463;27;43232;-78
2024/04/20 01:10:38;;;;;;;;;9.67;9.00;;;;;7.15;100.00;101714.09;5203898;27;43923;-78
2024/04/20 01:13:07;;;;;;;;;14.00;9.67;;;;;7.19;100.00;101727.91;5202892;27;45860;-77
2024/04/20 01:15:34;;;;;;;;;9.33;6.67;;;;;7.19;100.00;101733.22;5203454;27;43782;-78
2024/04/20 01:18:00;;;;;;;;;12.33;9.00;;;;;7.16;100.00;101734.28;5205904;27;43248;-77
2024/04/20 01:20:26;;;;;;;;;7.33;6.67;;;;;7.11;100.00;101739.13;5203717;27;44529;-78
2024/04/20 01:22:52;;;;;;;;;9.00;8.00;;;;;7.08;100.00;101736.72;5201466;27;45735;-78
2024/04/20 01:25:18;;;;;;;;;7.00;7.00;;;;;7.00;100.00;101725.97;5201631;27;44117;-77
2024/04/20 01:27:46;;;;;;;;;8.67;7.33;;;;;7.09;100.00;101734.94;5202424;27;43199;-78
2024/04/20 01:30:14;;;;;;;;;8.67;8.00;;;;;6.97;100.00;101719.09;5201839;27;45570;-77
2024/04/20 01:32:40;;;;;;;;;6.33;4.00;;;;;6.98;100.00;101731.38;5199714;27;45729;-78
2024/04/20 01:35:05;;;;;;;;;7.00;5.67;;;;;7.01;100.00;101730.28;5204754;27;43752;-78
2024/04/20 01:37:31;;;;;;;;;6.33;5.33;;;;;6.99;100.00;101727.75;5205238;27;43773;-78
2024/04/20 01:39:56;;;;;;;;;6.00;5.67;;;;;7.09;100.00;101735.75;5205959;27;45210;-77
2024/04/20 01:42:21;;;;;;;;;4.00;4.00;;;;;7.07;100.00;101724.50;5206427;27;44077;-78
2024/04/20 01:44:47;;;;;;;;;3.67;3.67;;;;;7.04;100.00;101720.28;5207369;27;44529;-78
2024/04/20 01:47:12;;;;;;;;;3.00;3.00;;;;;7.11;100.00;101722.41;5207112;27;43677;-78
2024/04/20 01:49:37;;;;;;;;;6.33;5.00;;;;;7.07;100.00;101727.13;5206190;27;44758;-78
2024/04/20 01:52:03;;;;;;;;;9.00;5.67;;;;;7.06;100.00;101731.56;5206643;27;43836;-78
2024/04/20 01:54:28;;;;;;;;;7.33;4.67;;;;;7.09;100.00;101743.69;5205585;27;43756;-78
2024/04/20 01:56:54;;;;;;;;;3.67;3.67;;;;;7.00;100.00;101742.63;5205161;27;43912;-77
2024/04/20 01:59:19;;;;;;;;;3.33;3.33;;;;;6.97;100.00;101750.81;5206353;27;47335;-78
2024/04/20 02:01:46;;;;;;;;;6.33;4.33;;;;;6.93;100.00;101758.19;5205373;27;46039;-78
2024/04/20 02:04:11;;;;;;;;;4.00;4.00;;;;;6.81;100.00;101749.44;5205161;27;43756;-78
2024/04/20 02:06:37;;;;;;;;;3.00;3.00;;;;;6.72;100.00;101752.81;5203491;27;43982;-78
2024/04/20 02:09:02;;;;;;;;;4.00;4.00;;;;;6.75;100.00;101760.50;5203285;27;45641;-78
2024/04/20 02:11:28;;;;;;;;;7.33;5.33;;;;;6.63;100.00;101753.56;5202409;27;46600;-77
2024/04/20 02:13:53;;;;;;;;;2.67;2.67;;;;;6.64;100.00;101766.63;5202781;27;43827;-78
2024/04/20 02:16:18;;;;;;;;;5.00;3.67;;;;;6.62;100.00;101758.03;5204178;27;43863;-78
2024/04/20 02:18:44;;;;;;;;;3.67;3.33;;;;;6.54;100.00;101752.50;5204487;27;45577;-78
2024/04/20 02:21:12;;;;;;;;;5.00;5.00;;;;;6.57;100.00;101760.19;5205518;27;43797;-78
2024/04/20 02:23:42;;;;;;;;;4.00;4.00;;;;;6.49;100.00;101752.03;5204569;27;43817;-78
2024/04/20 02:26:07;;;;;;;;;3.00;3.00;;;;;6.46;100.00;101754.91;5204533;27;43951;-78
2024/04/20 02:28:33;;;;;;;;;3.33;3.33;;;;;6.42;100.00;101759.59;5202146;27;44522;-78
2024/04/20 02:30:58;;;;;;;;;1.33;1.33;;;;;6.40;100.00;101759.72;5204291;27;45788;-77
2024/04/20 02:33:23;;;;;;;;;10.33;7.67;;;;;6.40;100.00;101759.72;5232491;27;44554;-78
2024/04/20 02:35:49;;;;;;;;;3.33;3.33;;;;;6.40;100.00;101764.13;5206585;27;43744;-77
2024/04/20 02:38:14;;;;;;;;;3.33;3.33;;;;;6.36;100.00;101760.94;5205332;27;45697;-78
2024/04/20 02:40:39;;;;;;;;;8.00;5.67;;;;;6.40;100.00;101770.28;5204397;27;45115;-78
2024/04/20 02:43:05;;;;;;;;;2.67;2.00;;;;;6.36;100.00;101763.56;5202220;27;43625;-78
2024/04/20 02:45:30;;;;;;;;;6.67;4.00;;;;;6.40;100.00;101772.91;5201443;27;43754;-78
2024/04/20 02:47:56;;;;;;;;;6.00;5.33;;;;;6.34;100.00;101762.84;5203943;27;43889;-78
2024/04/20 02:50:21;;;;;;;;;3.67;3.67;;;;;6.35;100.00;101768.97;5205349;27;43771;-78
2024/04/20 02:52:47;;;;;;;;;4.00;4.00;;;;;6.32;100.00;101777.97;5202450;27;43888;-78
2024/04/20 02:55:13;;;;;;;;;9.00;2.33;;;;;6.35;100.00;101784.81;5203816;27;43208;-78
2024/04/20 02:57:38;;;;;;;;;7.33;4.00;;;;;6.33;100.00;101774.38;5204948;27;43252;-78
2024/04/20 03:00:04;;;;;;;;;2.67;2.67;;;;;6.38;100.00;101781.94;5201794;27;45662;-78
2024/04/20 03:02:30;;;;;;;;;2.00;2.00;;;;;6.38;100.00;101774.81;5203471;27;43704;-78
2024/04/20 03:04:55;;;;;;;;;2.33;2.33;;;;;6.48;100.00;101789.94;5233608;27;43237;-78
2024/04/20 03:07:24;;;;;;;;;6.67;3.00;;;;;6.52;100.00;101791.38;5201848;27;44871;-78
2024/04/20 03:09:49;;;;;;;;;2.00;2.00;;;;;6.50;100.00;101791.50;5203459;27;47035;-78
2024/04/20 03:12:15;;;;;;;;;4.00;3.00;;;;;6.53;100.00;101791.25;5205951;27;47886;-78
2024/04/20 03:14:41;;;;;;;;;3.67;3.67;;;;;6.54;100.00;101794.75;5203633;27;43843;-78
2024/04/20 03:17:07;;;;;;;;;9.00;5.00;;;;;6.54;100.00;101792.13;5203257;27;44632;-78
2024/04/20 03:19:32;;;;;;;;;2.00;2.00;;;;;6.52;100.00;101794.03;5203583;27;43706;-78
2024/04/20 03:21:57;;;;;;;;;3.00;3.00;;;;;6.56;100.00;101803.41;5200122;27;43994;-77
2024/04/20 03:24:22;;;;;;;;;4.00;4.00;;;;;6.56;100.00;101803.41;5205603;27;43786;-78
2024/04/20 03:26:48;;;;;;;;;3.33;3.00;;;;;6.57;100.00;101810.38;5203148;27;52799;-78
2024/04/20 03:29:13;;;;;;;;;5.00;3.00;;;;;6.56;100.00;101806.06;5203736;27;46754;-78
2024/04/20 03:31:38;;;;;;;;;5.00;3.67;;;;;6.58;100.00;101809.41;5205595;27;43683;-78
2024/04/20 03:34:04;;;;;;;;;2.33;1.00;;;;;6.54;100.00;101800.03;5202497;27;43647;-78
2024/04/20 03:36:29;;;;;;;;;4.00;2.00;;;;;6.56;100.00;101803.41;5202350;27;44062;-78
2024/04/20 03:38:54;;;;;;;;;5.00;5.00;;;;;6.44;100.00;101794.66;5205367;27;43924;-77
2024/04/20 03:41:20;;;;;;;;;3.00;3.00;;;;;6.45;100.00;101785.75;5202365;27;44470;-76
2024/04/20 03:43:45;;;;;;;;;5.00;2.67;;;;;6.47;100.00;101806.78;5203594;27;44062;-78
2024/04/20 03:46:10;;;;;;;;;3.00;3.00;;;;;6.47;100.00;101809.41;5201856;27;43160;-78
2024/04/20 03:48:36;;;;;;;;;2.00;2.00;;;;;6.43;100.00;101807.00;5203703;27;45115;-78
2024/04/20 03:51:01;;;;;;;;;5.33;3.67;;;;;6.46;100.00;101807.75;5200279;27;47119;-77
2024/04/20 03:53:26;;;;;;;;;2.33;2.33;;;;;6.52;100.00;101829.22;5202985;27;43680;-78
2024/04/20 03:55:52;;;;;;;;;2.33;2.33;;;;;6.50;100.00;101825.03;5201268;27;44537;-78
2024/04/20 03:58:18;;;;;;;;;2.00;2.00;;;;;6.47;100.00;101814.69;5199902;27;46736;-78
2024/04/20 04:00:45;;;;;;;;;2.00;2.00;;;;;6.49;100.00;101824.16;5202908;27;43726;-78
2024/04/20 04:03:15;;;;;;;;;2.00;1.00;;;;;6.50;100.00;101836.41;5201892;27;43940;-78
2024/04/20 04:05:41;;;;;;;;;3.67;2.00;;;;;6.52;100.00;101839.78;5202675;27;43269;-78
2024/04/20 04:08:06;;;;;;;;;1.00;1.00;;;;;6.51;100.00;101837.25;5202562;27;46219;-78
2024/04/20 04:10:31;;;;;;;;;3.67;3.00;;;;;6.50;100.00;101841.69;5204314;27;43860;-78
2024/04/20 04:12:59;;;;;;;;;1.00;1.00;;;;;6.47;100.00;101833.19;5204875;27;43765;-77
2024/04/20 04:15:24;;;;;;;;;1.00;0.00;;;;;6.50;100.00;101838.22;5199722;27;44940;-78
2024/04/20 04:17:50;;;;;;;;;1.00;1.00;;;;;6.54;100.00;101850.22;5199512;27;45652;-78
2024/04/20 04:20:16;;;;;;;;;3.33;2.33;;;;;6.42;100.00;101826.47;5200539;27;43819;-77
2024/04/20 04:22:41;;;;;;;;;2.00;2.00;;;;;6.51;100.00;101842.53;5198485;27;43891;-77
2024/04/20 04:25:06;;;;;;;;;3.67;3.00;;;;;6.46;100.00;101839.44;5197702;27;44977;-77
2024/04/20 04:27:31;;;;;;;;;1.33;1.33;;;;;6.35;100.00;101820.00;5197614;27;52739;-78
2024/04/20 04:29:57;;;;;;;;;3.33;2.33;;;;;6.51;100.00;101850.47;5196196;27;52563;-78
2024/04/20 04:32:22;;;;;;;;;1.33;1.33;;;;;6.44;100.00;101834.28;5198235;27;43902;-78
2024/04/20 04:34:49;;;;;;;;;4.00;2.00;;;;;6.47;100.00;101844.59;5197860;27;44698;-77
2024/04/20 04:37:15;;;;;;;;;5.00;2.67;;;;;6.39;100.00;101836.41;5198276;27;46227;-78
2024/04/20 04:39:40;;;;;;;;;2.00;1.67;;;;;6.45;100.00;101851.78;5197688;27;43881;-78
2024/04/20 04:42:06;;;;;;;;;3.00;2.67;;;;;6.44;100.00;101852.75;5197352;27;45117;-78
2024/04/20 04:44:32;;;;;;;;;2.00;2.00;;;;;6.41;100.00;101848.53;5199104;27;43930;-78
2024/04/20 04:46:58;;;;;;;;;1.00;1.00;;;;;6.39;100.00;101852.25;5195591;27;45587;-78
2024/04/20 04:49:23;;;;;;;;;1.67;1.67;;;;;6.36;100.00;101850.72;5198489;27;43943;-78
2024/04/20 04:51:48;;;;;;;;;1.00;1.00;;;;;6.15;100.00;101829.44;5196427;27;43763;-78
2024/04/20 04:54:14;;;;;;;;;2.67;2.67;;;;;6.26;100.00;101860.31;5195436;27;45623;-78
2024/04/20 04:56:39;;;;;;;;;4.00;3.00;;;;;6.21;100.00;101858.00;5195757;27;45690;-78
2024/04/20 04:59:06;;;;;;;;;4.67;3.00;;;;;6.20;100.00;101856.34;5194891;27;43833;-78
2024/04/20 05:01:32;;;;;;;;;1.67;1.33;;;;;6.14;100.00;101852.34;5196750;27;43959;-78
2024/04/20 05:03:57;;;;;;;;;1.67;1.67;;;;;6.19;100.00;101871.31;5195856;27;44647;-78
2024/04/20 05:06:22;;;;;;;;;2.67;2.67;;;;;6.15;100.00;101872.53;5198030;27;44182;-78
2024/04/20 05:08:48;;;;;;;;;3.67;3.67;;;;;6.15;100.00;101872.53;5200868;27;43602;-80
2024/04/20 05:11:13;;;;;;;;;3.00;1.33;;;;;6.09;100.00;101866.84;5195888;27;43894;-78
2024/04/20 05:13:38;;;;;;;;;2.00;2.00;;;;;6.12;100.00;101883.31;5198037;27;45689;-78
2024/04/20 05:16:04;;;;;;;;;3.00;2.00;;;;;6.16;100.00;101887.41;5199571;27;45603;-78
2024/04/20 05:18:29;;;;;;;;;4.00;3.00;;;;;6.21;100.00;101891.47;5200664;27;43879;-77
2024/04/20 05:20:55;;;;;;;;;4.67;3.00;;;;;6.16;100.00;101895.31;5200004;27;44215;-77
2024/04/20 05:23:20;;;;;;;;;3.33;3.00;;;;;6.26;100.00;101910.47;5200818;27;43859;-77
2024/04/20 05:25:45;;;;;;;;;2.00;2.00;;;;;6.27;100.00;101905.06;5197214;27;46062;-78
2024/04/20 05:28:11;;;;;;;;;3.00;3.00;;;;;6.32;100.00;101894.16;5200932;27;43808;-78
2024/04/20 05:30:36;;;;;;;;;3.67;3.67;;;;;6.40;100.00;101904.97;5197939;27;47879;-78
2024/04/20 05:33:02;;;;;;;;;2.00;2.00;;;;;6.37;100.00;101905.19;5199732;27;44728;-78
2024/04/20 05:35:28;;;;;;;;;3.33;2.00;;;;;6.41;100.00;101911.09;5199247;27;45812;-78
2024/04/20 05:37:53;;;;;;;;;4.00;3.00;;;;;6.40;100.00;101912.03;5198261;27;43975;-80
2024/04/20 05:40:18;;;;;;;;;4.00;2.50;;;;;6.49;100.00;101931.66;5201536;27;43584;-77
2024/04/20 05:42:44;;;;;;;;;4.67;4.00;;;;;6.48;100.00;101930.78;5200298;27;43779;-78
2024/04/20 05:45:13;;;;;;;;;2.00;2.00;;;;;6.55;100.00;101939.91;5200850;27;45194;-79
2024/04/20 05:47:39;;;;;;;;;3.00;3.00;;;;;6.59;100.00;101943.19;5200489;27;44981;-80
2024/04/20 05:50:05;;;;;;;;;4.00;2.00;;;;;6.62;100.00;101939.44;5198316;27;43966;-79
2024/04/20 05:52:31;;;;;;;;;3.33;2.00;;;;;6.60;100.00;101944.00;5194151;27;45932;-79
2024/04/20 05:54:56;;;;;;;;;5.67;4.33;;;;;6.73;100.00;101952.66;5195731;27;46104;-79
2024/04/20 05:57:21;;;;;;;;;2.00;2.00;;;;;6.74;100.00;101942.94;5196814;27;43857;-78
2024/04/20 05:59:47;;;;;;;;;3.33;3.00;;;;;6.82;100.00;101951.97;5193357;27;43831;-79
2024/04/20 06:02:12;;;;;;;;;5.00;4.00;;;;;6.82;100.00;101951.09;5193424;27;44638;-79
2024/04/20 06:04:39;;;;;;;;;3.33;1.33;;;;;6.80;100.00;101945.13;5197769;27;43926;-77
2024/04/20 06:07:05;;;;;;;;;2.00;2.00;;;;;6.80;100.00;101964.44;5199848;27;43681;-82
2024/04/20 06:09:30;;;;;;;;;2.00;2.00;;;;;6.79;100.00;101954.84;5199168;27;43560;-80
2024/04/20 06:11:56;;;;;;;;;1.67;1.33;;;;;6.77;100.00;101958.56;5200095;27;50793;-80
2024/04/20 06:14:21;;;;;;;;;1.00;1.00;;;;;6.80;100.00;101967.06;5204126;27;45091;-82
2024/04/20 06:16:46;;;;;;;;;3.67;2.00;;;;;6.82;100.00;101972.25;5201835;27;45709;-81
2024/04/20 06:19:12;;;;;;;;;4.00;3.00;;;;;6.81;100.00;101966.13;5200545;27;51015;-80
2024/04/20 06:21:37;;;;;;;;;3.33;2.67;;;;;6.85;100.00;101969.38;5200940;27;50280;-79
2024/04/20 06:24:03;;;;;;;;;3.00;3.00;;;;;6.88;100.00;101963.84;5199860;27;43941;-80
2024/04/20 06:26:30;;;;;;;;;1.67;1.67;;;;;6.91;100.00;101968.03;5202580;27;43945;-80
2024/04/20 06:28:55;;;;;;;;;2.67;2.67;;;;;6.93;100.00;101955.56;5201899;27;43215;-79
2024/04/20 06:31:20;;;;;;;;;4.67;3.00;;;;;7.04;100.00;101973.22;5193715;27;43861;-81
2024/04/20 06:33:47;;;;;;;;;3.67;2.33;;;;;7.10;100.00;101969.25;5192581;27;56714;-77
2024/04/20 06:36:13;;;;;;;;;2.67;2.67;;;;;7.18;100.00;101970.34;5194419;27;44006;-78
2024/04/20 06:38:38;;;;;;;;;2.00;2.00;;;;;7.26;100.00;101988.25;5198703;27;44463;-77
2024/04/20 06:41:04;;;;;;;;;3.00;2.00;;;;;7.26;100.00;101982.94;5197564;27;43874;-78
2024/04/20 06:43:29;;;;;;;;;3.00;2.00;;;;;7.28;100.00;101983.66;5192375;27;45211;-77
2024/04/20 06:45:55;;;;;;;;;1.33;1.33;;;;;7.40;100.00;101987.16;5197317;27;43892;-78
2024/04/20 06:48:20;;;;;;;;;5.00;4.00;;;;;7.52;100.00;102000.34;5194812;27;43978;-77
2024/04/20 06:50:46;;;;;;;;;1.33;1.33;;;;;7.48;100.00;101978.59;5195913;27;44006;-77
2024/04/20 06:53:11;;;;;;;;;1.00;1.00;;;;;7.61;100.00;102001.41;5197239;27;43973;-77
2024/04/20 06:55:37;;;;;;;;;1.33;1.33;;;;;7.63;100.00;101991.56;5191105;27;43757;-78
2024/04/20 06:58:02;;;;;;;;;1.00;1.00;;;;;7.75;100.00;102001.13;5194705;27;43689;-76
2024/04/20 07:00:28;;;;;;;;;2.33;1.00;;;;;7.74;100.00;101999.47;5192621;27;45991;-76
2024/04/20 07:02:53;;;;;;;;;2.00;2.00;;;;;7.83;100.00;102004.00;5193427;27;44958;-78
2024/04/20 07:05:18;;;;;;;;;4.00;2.00;;;;;7.86;100.00;102002.06;5196044;27;46593;-77
2024/04/20 07:07:44;;;;;;;;;1.00;1.00;;;;;7.88;100.00;102003.66;5194493;27;43892;-76
2024/04/20 07:10:09;;;;;;;;;2.00;2.00;;;;;7.96;100.00;102017.09;5192885;27;44093;-80
2024/04/20 07:12:35;;;;;;;;;1.00;1.00;;;;;7.97;100.00;102007.34;5191398;27;44833;-77
2024/04/20 07:15:00;;;;;;;;;1.00;1.00;;;;;8.14;100.00;102026.31;5190606;27;44325;-78
2024/04/20 07:17:25;;;;;;;;;3.00;2.00;;;;;8.11;100.00;102018.59;5191715;27;44422;-80
2024/04/20 07:19:51;;;;;;;;;2.00;2.00;;;;;8.26;100.00;102032.41;5190044;27;44286;-80
2024/04/20 07:22:17;;;;;;;;;0.67;0.67;;;;;8.27;100.00;102032.28;5192975;27;48905;-76
2024/04/20 07:24:42;;;;;;;;;3.33;1.00;;;;;8.23;100.00;102020.22;5192629;27;43975;-79
2024/04/20 07:27:07;;;;;;;;;2.00;1.00;;;;;8.37;100.00;102031.47;5192094;27;43832;-80
2024/04/20 07:29:34;;;;;;;;;1.00;1.00;;;;;8.39;100.00;102029.56;5188081;27;46805;-79
2024/04/20 07:31:59;;;;;;;;;2.00;2.00;;;;;8.51;100.00;102025.88;5187408;27;46760;-81
2024/04/20 07:34:30;;;;;;;;;2.33;2.33;;;;;8.64;100.00;102035.47;5193678;27;43725;-80
2024/04/20 07:36:56;;;;;;;;;2.00;1.00;;;;;8.66;100.00;102037.03;5190279;27;43839;-79
2024/04/20 07:39:21;;;;;;;;;3.00;3.00;;;;;8.67;100.00;102024.59;5170308;27;43924;-83
2024/04/20 07:41:46;;;;;;;;;2.00;1.00;;;;;8.73;100.00;102017.94;5155629;27;45908;-83
2024/04/20 07:44:13;;;;;;;;;1.67;1.00;;;;;8.75;100.00;102021.31;5155979;27;47161;-81
2024/04/20 07:46:38;;;;;;;;;2.67;2.67;;;;;8.82;100.00;102014.50;5154870;27;43896;-84
2024/04/20 07:49:03;;;;;;;;;4.00;2.00;;;;;8.95;100.00;102032.88;5156754;27;50662;-82
2024/04/20 07:51:29;;;;;;;;;5.00;2.00;;;;;8.93;100.00;102010.94;5154831;27;46511;-79
2024/04/20 07:53:54;;;;;;;;;1.33;1.33;;;;;8.95;100.00;102020.44;5182704;27;43844;-79
2024/04/20 07:56:19;;;;;;;;;1.33;1.33;;;;;8.94;100.00;102015.28;5156594;27;43722;-79
2024/04/20 07:58:45;;;;;;;;;1.67;1.67;;;;;9.02;100.00;102026.06;5155602;27;43847;-79
2024/04/20 08:01:10;;;;;;;;;4.33;1.00;;;;;9.16;100.00;102024.88;5153716;27;47970;-80
2024/04/20 08:03:35;;;;;;;;;2.33;2.00;;;;;9.26;100.00;102021.41;5188196;27;43860;-82
2024/04/20 08:06:01;;;;;;;;;4.00;2.67;;;;;9.31;100.00;102022.69;5187651;27;43956;-82
2024/04/20 08:08:30;;;;;;;;;4.67;3.00;;;;;9.37;100.00;102031.09;5187954;27;43938;-79
2024/04/20 08:10:55;;;;;;;;;3.00;3.00;;;;;9.47;100.00;102047.88;5185366;27;46289;-79
2024/04/20 08:13:21;;;;;;;;;3.00;1.00;;;;;9.54;100.00;102048.19;5186418;27;44533;-79
2024/04/20 08:15:47;;;;;;;;;1.00;0.67;;;;;9.60;100.00;102048.50;5185048;27;43852;-81
2024/04/20 08:18:13;;;;;;;;;1.00;1.00;;;;;9.67;100.00;102047.94;5187585;27;43816;-80
2024/04/20 08:20:38;;;;;;;;;1.67;1.67;;;;;9.76;100.00;102063.03;5187152;27;44411;-80
2024/04/20 08:23:04;;;;;;;;;1.67;1.67;;;;;9.70;100.00;102047.69;5186006;27;43831;-81
2024/04/20 08:25:29;;;;;;;;;3.00;2.33;;;;;9.79;100.00;102061.94;5187395;27;43908;-80
2024/04/20 08:27:54;;;;;;;;;2.00;1.00;;;;;9.78;100.00;102049.63;5187633;27;51714;-82
2024/04/20 08:30:20;;;;;;;;;1.00;1.00;;;;;9.70;100.00;102045.03;5185278;27;49739;-82
2024/04/20 08:32:46;;;;;;;;;2.00;0.33;;;;;9.75;100.00;102052.59;5185745;27;43857;-80
2024/04/20 08:35:11;;;;;;;;;3.33;3.33;;;;;9.72;100.00;102043.06;5187104;27;43784;-82
2024/04/20 08:37:37;;;;;;;;;3.33;3.00;;;;;9.82;100.00;102061.69;5185908;27;44637;-79
2024/04/20 08:40:03;;;;;;;;;3.33;2.00;;;;;9.79;100.00;102046.03;5157719;27;45971;-80
2024/04/20 08:42:30;;;;;;;;;4.00;4.00;;;;;9.75;100.00;102039.31;5154607;27;43950;-81
2024/04/20 08:44:56;;;;;;;;;1.00;1.00;;;;;9.82;100.00;102059.84;5152728;27;44074;-80
2024/04/20 08:47:21;;;;;;;;;1.33;1.00;;;;;9.77;100.00;102053.28;5157481;27;43888;-81
2024/04/20 08:49:49;;;;;;;;;3.67;2.00;;;;;9.87;100.00;102059.44;5155322;27;44838;-82
2024/04/20 08:52:16;;;;;;;;;2.67;2.67;;;;;9.90;100.00;102060.97;5179768;27;43883;-81
2024/04/20 08:54:44;;;;;;;;;4.00;4.00;;;;;9.93;100.00;102072.19;5188173;27;43840;-81
2024/04/20 08:57:15;;;;;;;;;2.00;2.00;;;;;10.04;100.00;102071.22;5187912;27;44945;-81
2024/04/20 08:59:41;;;;;;;;;2.00;2.00;;;;;10.11;100.00;102068.84;5160364;27;45097;-79
2024/04/20 09:02:17;;;;;;;;;3.33;3.33;;;;;10.19;100.00;102070.81;5187844;27;43634;-78
2024/04/20 09:04:42;;;;;;;;;5.00;2.00;;;;;10.34;100.00;102072.09;5188089;27;43911;-80
2024/04/20 09:07:08;;;;;;;;;2.00;2.00;;;;;10.44;100.00;102073.88;5188322;27;44789;-81
2024/04/20 09:09:35;;;;;;;;;5.00;5.00;;;;;10.46;100.00;102059.53;5189770;27;44121;-81
2024/04/20 09:12:02;;;;;;;;;3.67;2.67;;;;;10.50;100.00;102072.53;5188215;27;43955;-80
2024/04/20 09:14:28;;;;;;;;;4.33;4.33;;;;;10.46;100.00;102064.84;5188332;27;44034;-81
2024/04/20 09:16:54;;;;;;;;;3.67;2.33;;;;;10.51;100.00;102063.56;5189843;27;43752;-80
2024/04/20 09:19:19;;;;;;;;;3.33;3.00;;;;;10.56;100.00;102074.59;5188341;27;46744;-80
2024/04/20 09:21:45;;;;;;;;;1.33;1.33;;;;;10.67;100.00;102071.81;5189905;27;43838;-81
2024/04/20 09:24:10;;;;;;;;;2.00;2.00;;;;;10.76;100.00;102067.44;5190561;27;43997;-83
2024/04/20 09:26:35;;;;;;;;;4.33;3.00;;;;;10.92;100.00;102064.19;5190072;27;43872;-79
2024/04/20 09:29:02;;;;;;;;;2.00;2.00;;;;;11.09;100.00;102075.91;5189749;27;43875;-85
2024/04/20 09:31:28;;;;;;;;;2.67;2.00;;;;;11.20;100.00;102068.75;5188488;27;43860;-82
2024/04/20 09:33:57;;;;;;;;;1.67;1.67;;;;;11.28;100.00;102068.00;5184188;27;43852;-82
2024/04/20 09:36:23;;;;;;;;;3.33;3.33;;;;;11.35;100.00;102075.25;5164398;27;44882;-77
2024/04/20 09:38:49;;;;;;;;;2.00;2.00;;;;;11.40;100.00;102080.13;5193506;27;44771;-76
2024/04/20 09:41:16;;;;;;;;;4.00;3.67;;;;;11.40;100.00;102077.47;5193422;27;43877;-77
2024/04/20 09:43:43;;;;;;;;;4.33;3.00;;;;;11.38;100.00;102071.47;5187103;27;43767;-79
2024/04/20 09:46:09;;;;;;;;;3.00;3.00;;;;;11.39;100.00;102074.94;5162747;27;43825;-76
2024/04/20 09:48:35;;;;;;;;;2.00;2.00;;;;;11.42;100.00;102075.50;5191101;27;44932;-79
2024/04/20 09:51:15;;;;;;;;;2.00;2.00;;;;;11.45;100.00;102069.91;5189309;27;43956;-76
2024/04/20 09:53:50;;;;;;;;;3.00;3.00;;;;;11.48;100.00;102080.25;5188604;27;56633;-81
2024/04/20 09:56:19;;;;;;;;;4.00;3.67;;;;;11.44;100.00;102075.38;5189557;27;43987;-75
2024/04/20 09:58:46;;;;;;;;;4.00;4.00;;;;;11.36;100.00;102066.28;5181115;27;45157;-80
2024/04/20 10:01:12;;;;;;;;;3.00;3.00;;;;;11.39;100.00;102075.81;5188727;27;43943;-78
2024/04/20 10:03:37;;;;;;;;;3.00;3.00;;;;;11.44;100.00;102076.19;5188885;27;43856;-82
2024/04/20 10:06:04;;;;;;;;;2.33;2.00;;;;;11.52;100.00;102082.63;5189081;27;44042;-83
2024/04/20 10:08:32;;;;;;;;;3.00;3.00;;;;;11.55;100.00;102085.00;5189306;27;44273;-86
2024/04/20 10:10:57;;;;;;;;;3.67;3.00;;;;;11.37;100.00;102083.09;5187066;27;44589;-81
2024/04/20 10:13:23;;;;;;;;;3.00;3.00;;;;;11.19;100.00;102075.88;5189560;27;43796;-80
2024/04/20 10:15:53;;;;;;;;;5.00;3.33;;;;;11.17;100.00;102093.81;5190550;27;43927;-83
2024/04/20 10:18:19;;;;;;;;;4.33;4.33;;;;;11.10;100.00;102098.03;5188359;27;45947;-84
2024/04/20 10:20:45;;;;;;;;;4.33;3.00;;;;;10.96;100.00;102084.19;5189784;27;43879;-82
2024/04/20 10:23:18;;;;;;;;;3.00;2.00;;;;;11.00;100.00;102095.41;5188263;27;43980;-85
2024/04/20 10:25:47;;;;;;;;;3.00;2.00;;;;;11.04;100.00;102087.97;5190920;27;44262;-81
2024/04/20 10:28:30;;;;;;;;;3.33;3.00;;;;;11.14;100.00;102095.91;5190701;27;44288;-81
2024/04/20 10:30:57;;;;;;;;;3.00;2.00;;;;;11.19;100.00;102091.84;5187851;27;44097;-79
2024/04/20 10:33:26;;;;;;;;;3.67;3.67;;;;;11.19;100.00;102070.56;5188810;27;43855;-78
2024/04/20 10:35:58;;;;;;;;;2.00;2.00;;;;;11.36;100.00;102076.09;5188683;27;44085;-81
2024/04/20 10:38:33;;;;;;;;;3.33;2.33;;;;;11.62;100.00;102084.22;5185716;27;45994;-79
2024/04/20 10:41:18;;;;;;;;;5.00;4.67;;;;;11.97;100.00;102068.47;5158670;27;44041;-82
2024/04/20 10:43:45;;;;;;;;;5.00;3.00;;;;;12.21;100.00;102072.38;5186233;27;43861;-79
2024/04/20 10:46:10;;;;;;;;;3.33;3.33;;;;;12.48;100.00;102080.47;5186986;27;43899;-81
2024/04/20 10:48:43;;;;;;;;;7.33;3.00;;;;;12.45;100.00;102059.44;5186773;27;46390;-82
2024/04/20 10:51:16;;;;;;;;;2.33;2.33;;;;;12.69;100.00;102090.78;5186910;27;43831;-77
2024/04/20 10:53:42;;;;;;;;;2.33;2.33;;;;;12.59;100.00;102060.69;5189370;27;43936;-80
2024/04/20 10:56:08;;;;;;;;;4.33;2.67;;;;;12.72;100.00;102065.66;5188249;27;43918;-79
2024/04/20 10:58:37;;;;;;;;;2.00;2.00;;;;;12.89;100.00;102079.91;5186677;27;45964;-81
2024/04/20 11:01:04;;;;;;;;;2.00;2.00;;;;;12.88;100.00;102079.06;5187348;27;44203;-84
2024/04/20 11:03:30;;;;;;;;;2.67;2.67;;;;;12.83;100.00;102065.38;5177310;27;44494;-80
2024/04/20 11:05:57;;;;;;;;;2.67;2.00;;;;;12.96;100.00;102069.47;5187680;27;43958;-80
2024/04/20 11:08:23;;;;;;;;;2.33;2.33;;;;;13.06;100.00;102080.88;5185745;27;45826;-82
2024/04/20 11:11:02;;;;;;;;;2.67;2.67;;;;;13.03;100.00;102083.00;5182820;27;44591;-80
2024/04/20 11:13:29;;;;;;;;;3.33;2.67;;;;;12.96;100.00;102080.13;5184456;27;44014;-80
2024/04/20 11:15:54;;;;;;;;;3.00;3.00;;;;;12.94;100.00;102079.44;5175193;27;44955;-83
2024/04/20 11:18:20;;;;;;;;;3.33;3.33;;;;;13.00;100.00;102081.50;5185723;27;46973;-86